createdAt,value
2019-04-26T00:00:52.857Z,29.80
2019-04-26T00:03:21.538Z,29.80
2019-04-26T00:05:48.733Z,29.70
2019-04-26T00:08:15.835Z,29.70
2019-04-26T00:10:45.186Z,29.70
2019-04-26T00:13:26.258Z,29.70
2019-04-26T00:16:04.140Z,29.70
2019-04-26T00:18:31.274Z,29.70
2019-04-26T00:20:58.066Z,29.80
2019-04-26T00:23:24.928Z,29.80
2019-04-26T00:25:52.113Z,29.80
2019-04-26T00:28:19.643Z,29.80
2019-04-26T00:30:47.429Z,29.80
2019-04-26T00:33:15.176Z,29.80
2019-04-26T00:35:47.916Z,29.80
2019-04-26T00:38:12.817Z,29.80
2019-04-26T00:40:40.594Z,29.80
2019-04-26T00:43:08.100Z,29.70
2019-04-26T00:45:35.591Z,29.70
2019-04-26T00:48:02.857Z,29.70
2019-04-26T00:50:29.749Z,29.70
2019-04-26T00:52:58.440Z,29.70
2019-04-26T00:55:25.444Z,29.70
2019-04-26T00:57:52.372Z,29.70
2019-04-26T01:00:21.285Z,29.70
2019-04-26T01:02:50.216Z,29.70
2019-04-26T01:05:21.683Z,29.70
2019-04-26T01:07:50.414Z,29.60
2019-04-26T01:10:17.744Z,29.60
2019-04-26T01:12:44.921Z,29.60
2019-04-26T01:15:11.977Z,29.60
2019-04-26T01:17:39.039Z,29.50
2019-04-26T01:20:08.532Z,29.50
2019-04-26T01:22:42.269Z,29.50
2019-04-26T01:25:29.410Z,29.50
2019-04-26T01:27:56.401Z,29.50
2019-04-26T01:30:25.868Z,29.50
2019-04-26T01:32:53.477Z,29.50
2019-04-26T01:35:20.331Z,29.50
2019-04-26T01:37:48.806Z,29.40
2019-04-26T01:40:17.684Z,29.40
2019-04-26T01:42:52.534Z,29.40
2019-04-26T01:45:32.064Z,29.40
2019-04-26T01:48:03.010Z,29.40
2019-04-26T01:50:32.134Z,29.40
2019-04-26T01:52:59.734Z,29.30
2019-04-26T01:55:31.252Z,29.30
2019-04-26T01:58:01.754Z,29.30
2019-04-26T02:00:45.832Z,29.30
2019-04-26T02:03:21.544Z,29.30
2019-04-26T02:05:50.028Z,29.30
2019-04-26T02:08:17.170Z,29.20
2019-04-26T02:10:43.925Z,29.20
2019-04-26T02:13:10.993Z,29.20
2019-04-26T02:15:37.777Z,29.20
2019-04-26T02:18:04.570Z,29.20
2019-04-26T02:20:50.266Z,29.10
2019-04-26T02:23:25.187Z,29.10
2019-04-26T02:25:53.199Z,29.10
2019-04-26T02:28:19.885Z,29.10
2019-04-26T02:30:46.961Z,29.00
2019-04-26T02:33:14.134Z,29.00
2019-04-26T02:35:40.908Z,28.90
2019-04-26T02:38:07.596Z,28.80
2019-04-26T02:40:34.935Z,28.80
2019-04-26T02:43:01.953Z,28.80
2019-04-26T02:45:42.860Z,28.70
2019-04-26T02:48:14.821Z,28.70
2019-04-26T02:50:50.103Z,28.70
2019-04-26T02:53:20.375Z,28.60
2019-04-26T02:56:05.895Z,28.50
2019-04-26T02:58:37.718Z,28.50
2019-04-26T03:01:04.767Z,28.50
2019-04-26T03:03:33.392Z,28.50
2019-04-26T03:06:00.823Z,28.40
2019-04-26T03:08:32.083Z,28.40
2019-04-26T03:11:02.781Z,28.40
2019-04-26T03:13:38.815Z,28.30
2019-04-26T03:16:12.212Z,28.30
2019-04-26T03:18:47.182Z,28.30
2019-04-26T03:21:23.582Z,28.30
2019-04-26T03:23:59.119Z,28.30
2019-04-26T03:26:28.891Z,28.30
2019-04-26T03:29:02.257Z,28.40
2019-04-26T03:32:02.988Z,28.40
2019-04-26T03:34:42.182Z,28.40
2019-04-26T03:37:36.014Z,28.40
2019-04-26T03:40:26.666Z,28.50
2019-04-26T03:42:58.094Z,28.50
2019-04-26T03:45:35.209Z,28.60
2019-04-26T03:48:19.553Z,28.60
2019-04-26T03:50:53.036Z,28.70
2019-04-26T03:53:32.579Z,28.70
2019-04-26T03:56:06.124Z,28.70
2019-04-26T03:58:55.189Z,28.70
2019-04-26T04:01:24.179Z,28.70
2019-04-26T04:03:53.089Z,28.80
2019-04-26T04:06:25.388Z,28.80
2019-04-26T04:09:06.741Z,28.80
2019-04-26T04:11:45.018Z,28.80
2019-04-26T04:14:16.692Z,28.80
2019-04-26T04:16:55.345Z,28.80
2019-04-26T04:19:27.693Z,28.80
2019-04-26T04:22:01.557Z,28.80
2019-04-26T04:24:34.847Z,28.90
2019-04-26T04:27:08.479Z,29.00
2019-04-26T04:29:55.635Z,29.10
2019-04-26T04:32:53.441Z,29.20
2019-04-26T04:35:23.056Z,29.30
2019-04-26T04:38:08.676Z,29.50
2019-04-26T04:40:30.387Z,29.70
2019-04-26T04:43:05.760Z,29.80
2019-04-26T04:46:10.352Z,30.10
2019-04-26T04:49:06.786Z,30.50
2019-04-26T04:51:55.706Z,31.20
2019-04-26T04:55:06.652Z,31.80
2019-04-26T04:57:36.418Z,32.30
2019-04-26T05:00:11.787Z,33.00
2019-04-26T05:02:50.759Z,33.40
2019-04-26T05:06:06.949Z,33.70
2019-04-26T05:08:38.420Z,34.00
2019-04-26T05:11:36.474Z,34.40
2019-04-26T05:14:16.060Z,34.70
2019-04-26T05:17:09.474Z,35.00
2019-04-26T05:19:46.837Z,35.40
2019-04-26T05:22:47.302Z,35.60
2019-04-26T05:25:40.329Z,35.80
2019-04-26T05:28:39.766Z,36.10
2019-04-26T05:31:45.885Z,36.40
2019-04-26T05:34:30.465Z,36.50
2019-04-26T05:37:06.662Z,36.60
2019-04-26T05:39:43.084Z,36.80
2019-04-26T05:42:18.629Z,36.90
2019-04-26T05:45:15.580Z,37.00
2019-04-26T05:48:08.455Z,37.10
2019-04-26T05:51:06.099Z,37.20
2019-04-26T05:53:57.159Z,37.30
2019-04-26T05:56:48.020Z,37.50
2019-04-26T05:59:21.499Z,37.70
2019-04-26T06:02:22.777Z,37.80
2019-04-26T06:05:13.174Z,37.90
2019-04-26T06:07:58.539Z,38.00
2019-04-26T06:10:39.563Z,38.20
2019-04-26T06:13:23.967Z,38.30
2019-04-26T06:16:04.888Z,38.50
2019-04-26T06:19:07.529Z,38.50
2019-04-26T06:21:52.235Z,38.60
2019-04-26T06:24:29.100Z,38.80
2019-04-26T06:27:13.620Z,38.90
2019-04-26T06:29:48.773Z,39.00
2019-04-26T06:32:19.546Z,39.20
2019-04-26T06:35:02.067Z,39.20
2019-04-26T06:37:40.536Z,39.30
2019-04-26T06:40:14.340Z,39.40
2019-04-26T06:42:50.874Z,39.50
2019-04-26T06:45:31.593Z,39.60
2019-04-26T06:48:31.502Z,39.70
2019-04-26T06:51:24.845Z,39.90
2019-04-26T06:54:21.846Z,40.10
2019-04-26T06:56:57.410Z,40.40
2019-04-26T06:59:36.626Z,40.50
2019-04-26T07:02:04.155Z,40.60
2019-04-26T07:04:37.554Z,40.60
2019-04-26T07:07:16.024Z,40.60
2019-04-26T07:10:04.235Z,40.80
2019-04-26T07:12:36.449Z,40.90
2019-04-26T07:15:28.001Z,40.90
2019-04-26T07:17:58.368Z,41.00
2019-04-26T07:20:29.095Z,41.10
2019-04-26T07:23:22.939Z,41.20
2019-04-26T07:26:01.712Z,41.30
2019-04-26T07:28:48.201Z,41.40
2019-04-26T07:31:47.994Z,41.50
2019-04-26T07:34:44.942Z,41.60
2019-04-26T07:37:49.122Z,41.60
2019-04-26T07:40:43.162Z,41.60
2019-04-26T07:43:21.544Z,41.40
2019-04-26T07:46:10.859Z,41.40
2019-04-26T07:48:59.791Z,41.40
2019-04-26T07:51:53.405Z,41.60
2019-04-26T07:54:46.750Z,41.70
2019-04-26T07:57:40.714Z,41.70
2019-04-26T08:00:20.828Z,41.80
2019-04-26T08:02:55.907Z,41.80
2019-04-26T08:05:40.616Z,41.70
2019-04-26T08:08:10.891Z,41.60
2019-04-26T08:10:39.491Z,41.70
2019-04-26T08:13:16.338Z,41.60
2019-04-26T08:16:08.640Z,41.60
2019-04-26T08:18:41.694Z,41.70
2019-04-26T08:21:18.520Z,41.80
2019-04-26T08:23:56.110Z,41.80
2019-04-26T08:26:26.207Z,41.90
2019-04-26T08:28:56.641Z,41.90
2019-04-26T08:31:25.909Z,42.00
2019-04-26T08:33:57.094Z,42.00
2019-04-26T08:36:31.265Z,42.00
2019-04-26T08:38:59.913Z,42.00
2019-04-26T08:41:26.978Z,42.00
2019-04-26T08:43:59.795Z,42.00
2019-04-26T08:46:47.721Z,41.90
2019-04-26T08:49:23.942Z,41.90
2019-04-26T08:51:55.942Z,41.90
2019-04-26T08:54:25.181Z,41.90
2019-04-26T08:56:55.632Z,42.00
2019-04-26T08:59:25.830Z,42.00
2019-04-26T09:02:02.086Z,42.10
2019-04-26T09:04:35.107Z,42.10
2019-04-26T09:07:19.820Z,42.00
2019-04-26T09:09:57.197Z,41.80
2019-04-26T09:12:23.180Z,41.70
2019-04-26T09:14:53.038Z,41.60
2019-04-26T09:17:20.064Z,41.40
2019-04-26T09:19:47.581Z,41.40
2019-04-26T09:22:16.799Z,41.30
2019-04-26T09:24:45.644Z,41.30
2019-04-26T09:27:21.066Z,41.20
2019-04-26T09:29:54.882Z,41.00
2019-04-26T09:32:35.832Z,41.00
2019-04-26T09:35:04.891Z,40.90
2019-04-26T09:37:32.126Z,40.80
2019-04-26T09:40:09.649Z,40.70
2019-04-26T09:42:34.219Z,40.70
2019-04-26T09:45:19.405Z,40.60
2019-04-26T09:47:48.187Z,40.50
2019-04-26T09:50:17.203Z,40.40
2019-04-26T09:52:49.754Z,40.30
2019-04-26T09:55:16.687Z,40.40
2019-04-26T09:57:44.472Z,40.30
2019-04-26T10:00:15.622Z,40.20
2019-04-26T10:02:43.260Z,40.10
2019-04-26T10:05:12.043Z,40.10
2019-04-26T10:07:39.528Z,40.10
2019-04-26T10:10:08.946Z,40.10
2019-04-26T10:12:37.915Z,40.10
2019-04-26T10:15:26.838Z,40.10
2019-04-26T10:17:52.592Z,40.10
2019-04-26T10:20:21.027Z,40.10
2019-04-26T10:22:48.057Z,40.10
2019-04-26T10:25:16.908Z,40.20
2019-04-26T10:27:44.466Z,40.30
2019-04-26T10:30:13.566Z,40.30
2019-04-26T10:32:40.614Z,40.40
2019-04-26T10:35:08.240Z,40.40
2019-04-26T10:37:39.451Z,40.40
2019-04-26T10:40:04.833Z,40.50
2019-04-26T10:42:34.753Z,40.50
2019-04-26T10:45:03.821Z,40.50
2019-04-26T10:47:34.361Z,40.60
2019-04-26T10:49:59.797Z,40.70
2019-04-26T10:52:31.387Z,40.80
2019-04-26T10:55:17.506Z,40.80
2019-04-26T10:57:46.767Z,40.90
2019-04-26T11:00:25.694Z,41.00
2019-04-26T11:02:52.937Z,41.00
2019-04-26T11:05:19.726Z,41.10
2019-04-26T11:07:46.681Z,41.10
2019-04-26T11:10:14.386Z,41.20
2019-04-26T11:12:43.354Z,41.30
2019-04-26T11:15:11.743Z,41.40
2019-04-26T11:17:38.683Z,41.50
2019-04-26T11:20:10.202Z,41.60
2019-04-26T11:22:37.593Z,41.60
2019-04-26T11:25:04.655Z,41.70
2019-04-26T11:27:32.630Z,41.70
2019-04-26T11:30:11.134Z,41.70
2019-04-26T11:32:33.054Z,41.70
2019-04-26T11:35:00.266Z,41.80
2019-04-26T11:37:28.283Z,41.80
2019-04-26T11:39:57.067Z,41.90
2019-04-26T11:42:24.015Z,41.80
2019-04-26T11:44:51.164Z,41.80
2019-04-26T11:47:18.143Z,41.80
2019-04-26T11:49:45.084Z,41.90
2019-04-26T11:52:12.515Z,41.90
2019-04-26T11:54:41.229Z,42.00
2019-04-26T11:57:11.922Z,42.00
2019-04-26T11:59:37.244Z,42.10
2019-04-26T12:02:04.409Z,42.20
2019-04-26T12:04:33.468Z,42.30
2019-04-26T12:07:05.990Z,42.50
2019-04-26T12:09:35.485Z,42.60
2019-04-26T12:12:04.971Z,42.60
2019-04-26T12:14:33.551Z,42.60
2019-04-26T12:17:01.378Z,42.70
2019-04-26T12:19:28.296Z,42.60
2019-04-26T12:21:55.247Z,42.70
2019-04-26T12:24:25.349Z,42.80
2019-04-26T12:26:52.018Z,43.00
2019-04-26T12:29:18.654Z,43.10
2019-04-26T12:31:45.469Z,43.10
2019-04-26T12:34:14.158Z,43.10
2019-04-26T12:36:41.728Z,43.20
2019-04-26T12:39:11.033Z,43.20
2019-04-26T12:41:40.569Z,43.20
2019-04-26T12:44:07.138Z,43.20
2019-04-26T12:46:39.112Z,43.20
2019-04-26T12:49:06.271Z,43.20
2019-04-26T12:51:33.425Z,43.20
2019-04-26T12:54:03.647Z,43.10
2019-04-26T12:56:31.206Z,43.10
2019-04-26T12:58:58.252Z,43.00
2019-04-26T13:01:25.748Z,43.00
2019-04-26T13:04:06.480Z,42.90
2019-04-26T13:06:42.776Z,42.80
2019-04-26T13:09:15.054Z,42.60
2019-04-26T13:11:49.098Z,42.50
2019-04-26T13:14:19.626Z,42.40
2019-04-26T13:16:51.278Z,42.40
2019-04-26T13:19:19.944Z,42.40
2019-04-26T13:21:46.948Z,42.40
2019-04-26T13:24:13.854Z,42.50
2019-04-26T13:26:40.696Z,42.50
2019-04-26T13:29:07.631Z,42.60
2019-04-26T13:31:34.334Z,42.60
2019-04-26T13:34:02.861Z,42.70
2019-04-26T13:36:52.018Z,42.80
2019-04-26T13:39:22.388Z,42.80
2019-04-26T13:41:47.515Z,42.80
2019-04-26T13:44:16.302Z,42.80
2019-04-26T13:46:45.544Z,42.80
2019-04-26T13:49:17.664Z,42.70
2019-04-26T13:51:45.123Z,42.70
2019-04-26T13:54:12.020Z,42.60
2019-04-26T13:56:39.114Z,42.60
2019-04-26T13:59:06.896Z,42.70
2019-04-26T14:01:34.330Z,42.80
2019-04-26T14:04:02.396Z,42.80
2019-04-26T14:06:30.202Z,42.80
2019-04-26T14:08:58.192Z,42.70
2019-04-26T14:11:29.394Z,42.70
2019-04-26T14:13:55.394Z,42.70
2019-04-26T14:16:23.537Z,42.60
2019-04-26T14:18:50.650Z,42.60
2019-04-26T14:21:17.729Z,42.60
2019-04-26T14:23:55.414Z,42.60
2019-04-26T14:26:24.780Z,42.70
2019-04-26T14:28:54.320Z,42.80
2019-04-26T14:31:21.066Z,43.00
2019-04-26T14:33:48.294Z,43.00
2019-04-26T14:36:22.623Z,43.00
2019-04-26T14:38:50.264Z,43.00
2019-04-26T14:41:21.851Z,43.00
2019-04-26T14:43:46.437Z,43.00
2019-04-26T14:46:14.514Z,43.00
2019-04-26T14:48:44.671Z,43.10
2019-04-26T14:51:12.340Z,43.00
2019-04-26T14:53:40.013Z,42.80
2019-04-26T14:56:06.897Z,42.60
2019-04-26T14:58:34.311Z,42.40
2019-04-26T15:01:05.963Z,42.20
2019-04-26T15:03:34.813Z,42.10
2019-04-26T15:06:06.540Z,41.90
2019-04-26T15:08:34.170Z,41.90
2019-04-26T15:11:03.874Z,41.90
2019-04-26T15:13:30.467Z,41.80
2019-04-26T15:15:57.516Z,41.90
2019-04-26T15:18:24.661Z,41.90
2019-04-26T15:20:53.052Z,42.00
2019-04-26T15:23:23.925Z,42.00
2019-04-26T15:25:50.091Z,42.00
2019-04-26T15:28:17.032Z,41.90
2019-04-26T15:30:46.917Z,41.90
2019-04-26T15:33:13.936Z,41.80
2019-04-26T15:35:42.435Z,41.80
2019-04-26T15:38:09.453Z,41.70
2019-04-26T15:40:54.929Z,41.60
2019-04-26T15:43:40.406Z,41.50
2019-04-26T15:46:12.446Z,41.40
2019-04-26T15:48:54.483Z,41.40
2019-04-26T15:51:27.182Z,41.30
2019-04-26T15:53:53.142Z,41.40
2019-04-26T15:56:34.375Z,41.50
2019-04-26T15:59:03.544Z,41.50
2019-04-26T16:01:32.369Z,41.70
2019-04-26T16:03:59.750Z,41.70
2019-04-26T16:06:29.554Z,41.80
2019-04-26T16:08:56.695Z,41.90
2019-04-26T16:11:24.114Z,42.10
2019-04-26T16:13:55.054Z,42.10
2019-04-26T16:16:20.682Z,42.20
2019-04-26T16:18:53.387Z,42.20
2019-04-26T16:21:22.056Z,42.20
2019-04-26T16:23:52.052Z,42.20
2019-04-26T16:26:18.300Z,42.10
2019-04-26T16:29:04.723Z,41.90
2019-04-26T16:31:42.092Z,41.80
2019-04-26T16:34:14.435Z,41.70
2019-04-26T16:39:13.134Z,41.30
2019-04-26T16:41:41.708Z,41.20
2019-04-26T16:44:09.136Z,41.00
2019-04-26T16:46:36.094Z,40.90
2019-04-26T16:49:05.847Z,40.70
2019-04-26T16:51:34.095Z,40.50
2019-04-26T16:54:07.553Z,40.30
2019-04-26T16:56:35.855Z,40.30
2019-04-26T16:59:02.840Z,40.10
2019-04-26T17:00:30.713Z,41.50
2019-04-26T17:01:29.803Z,40.00
2019-04-26T17:03:56.610Z,39.90
2019-04-26T17:06:23.574Z,39.70
2019-04-26T17:09:00.224Z,39.60
2019-04-26T17:11:19.041Z,39.50
2019-04-26T17:13:50.608Z,39.40
2019-04-26T17:16:14.852Z,39.30
2019-04-26T17:18:42.675Z,39.20
2019-04-26T17:21:12.585Z,39.20
2019-04-26T17:23:41.722Z,39.10
2019-04-26T17:26:29.237Z,39.00
2019-04-26T17:28:56.603Z,38.90
2019-04-26T17:31:24.165Z,38.80
2019-04-26T17:33:52.348Z,38.70
2019-04-26T17:36:20.321Z,38.60
2019-04-26T17:38:47.262Z,38.40
2019-04-26T17:41:14.620Z,38.30
2019-04-26T17:43:46.926Z,38.20
2019-04-26T17:46:14.621Z,38.10
2019-04-26T17:48:40.847Z,38.10
2019-04-26T17:51:12.143Z,38.00
2019-04-26T17:53:37.738Z,38.00
2019-04-26T17:56:04.889Z,37.90
2019-04-26T17:58:35.743Z,37.70
2019-04-26T18:01:03.729Z,37.60
2019-04-26T18:03:32.676Z,37.50
2019-04-26T18:06:01.050Z,37.50
2019-04-26T18:08:40.748Z,37.30
2019-04-26T18:10:57.272Z,37.20
2019-04-26T18:13:24.412Z,37.20
2019-04-26T18:15:52.949Z,37.10
2019-04-26T18:18:38.762Z,37.00
2019-04-26T18:21:26.981Z,37.00
2019-04-26T18:23:57.037Z,36.90
2019-04-26T18:26:24.531Z,36.80
2019-04-26T18:28:54.916Z,36.70
2019-04-26T18:31:22.154Z,36.60
2019-04-26T18:33:49.109Z,36.50
2019-04-26T18:36:27.558Z,36.40
2019-04-26T18:38:53.655Z,36.30
2019-04-26T18:41:23.069Z,36.20
2019-04-26T18:43:54.056Z,36.10
2019-04-26T18:46:26.043Z,36.00
2019-04-26T18:48:53.536Z,35.90
2019-04-26T18:51:20.880Z,35.80
2019-04-26T18:53:49.964Z,35.70
2019-04-26T18:56:16.911Z,35.60
2019-04-26T18:58:43.856Z,35.60
2019-04-26T19:01:13.568Z,35.50
2019-04-26T19:03:40.691Z,35.30
2019-04-26T19:06:10.924Z,35.20
2019-04-26T19:08:47.789Z,35.10
2019-04-26T19:11:11.685Z,35.00
2019-04-26T19:13:41.762Z,34.90
2019-04-26T19:16:18.163Z,34.80
2019-04-26T19:18:49.519Z,34.70
2019-04-26T19:21:18.529Z,34.50
2019-04-26T19:23:45.763Z,34.50
2019-04-26T19:26:13.586Z,34.30
2019-04-26T19:28:44.378Z,34.20
2019-04-26T19:31:10.400Z,34.20
2019-04-26T19:33:37.851Z,34.10
2019-04-26T19:36:05.442Z,34.00
2019-04-26T19:38:35.457Z,33.90
2019-04-26T19:41:04.389Z,33.90
2019-04-26T19:43:34.996Z,33.90
2019-04-26T19:46:04.370Z,33.80
2019-04-26T19:48:33.031Z,33.80
2019-04-26T19:51:02.573Z,33.80
2019-04-26T19:53:34.533Z,33.80
2019-04-26T19:56:27.546Z,33.90
2019-04-26T19:58:57.393Z,33.90
2019-04-26T20:01:24.805Z,34.00
2019-04-26T20:03:51.971Z,34.00
2019-04-26T20:06:19.945Z,34.10
2019-04-26T20:08:49.533Z,34.00
2019-04-26T20:11:18.686Z,34.00
2019-04-26T20:13:46.945Z,34.00
2019-04-26T20:16:13.891Z,34.00
2019-04-26T20:18:42.117Z,34.00
2019-04-26T20:21:15.600Z,34.00
2019-04-26T20:23:47.069Z,34.00
2019-04-26T20:26:12.083Z,34.00
2019-04-26T20:28:39.371Z,34.00
2019-04-26T20:31:12.314Z,34.00
2019-04-26T20:33:39.625Z,33.90
2019-04-26T20:36:06.561Z,33.90
2019-04-26T20:38:42.868Z,34.00
2019-04-26T20:41:04.963Z,34.00
2019-04-26T20:43:36.213Z,34.00
2019-04-26T20:46:12.371Z,33.90
2019-04-26T20:48:33.070Z,33.90
2019-04-26T20:51:06.659Z,33.90
2019-04-26T20:53:39.916Z,33.90
2019-04-26T20:56:03.831Z,33.90
2019-04-26T20:58:30.121Z,33.90
2019-04-26T21:00:57.112Z,33.80
2019-04-26T21:03:27.640Z,33.80
2019-04-26T21:05:58.958Z,33.80
2019-04-26T21:08:25.724Z,33.70
2019-04-26T21:10:52.091Z,33.70
2019-04-26T21:13:19.152Z,33.70
2019-04-26T21:15:56.051Z,33.60
2019-04-26T21:18:15.365Z,33.50
2019-04-26T21:20:42.709Z,33.30
2019-04-26T21:23:09.769Z,33.20
2019-04-26T21:25:42.058Z,33.10
2019-04-26T21:28:13.513Z,33.10
2019-04-26T21:30:43.000Z,33.10
2019-04-26T21:33:13.038Z,33.00
2019-04-26T21:35:42.891Z,33.00
2019-04-26T21:38:25.574Z,33.00
2019-04-26T21:40:55.416Z,33.00
2019-04-26T21:43:23.177Z,32.90
2019-04-26T21:45:54.902Z,32.90
2019-04-26T21:48:20.975Z,32.90
2019-04-26T21:50:48.388Z,33.00
2019-04-26T21:53:15.762Z,33.00
2019-04-26T21:55:43.489Z,33.00
2019-04-26T21:58:10.488Z,33.10
2019-04-26T22:00:48.439Z,33.20
2019-04-26T22:03:17.257Z,33.20
2019-04-26T22:05:49.887Z,33.30
2019-04-26T22:08:17.479Z,33.30
2019-04-26T22:10:46.417Z,33.30
2019-04-26T22:13:15.883Z,33.30
2019-04-26T22:15:49.059Z,33.30
2019-04-26T22:18:24.005Z,33.30
2019-04-26T22:20:55.257Z,33.30
2019-04-26T22:23:25.358Z,33.30
2019-04-26T22:25:55.983Z,33.30
2019-04-26T22:28:23.847Z,33.30
2019-04-26T22:30:53.494Z,33.30
2019-04-26T22:33:21.266Z,33.20
2019-04-26T22:35:50.472Z,33.20
2019-04-26T22:38:17.490Z,33.20
2019-04-26T22:40:48.667Z,33.20
2019-04-26T22:43:20.259Z,33.20
2019-04-26T22:45:50.342Z,33.20
2019-04-26T22:48:25.099Z,33.20
2019-04-26T22:50:52.052Z,33.20
2019-04-26T22:53:21.631Z,33.30
2019-04-26T22:55:48.855Z,33.20
2019-04-26T22:58:15.577Z,33.30
2019-04-26T23:00:44.811Z,33.30
2019-04-26T23:03:13.606Z,33.30
2019-04-26T23:05:40.824Z,33.20
2019-04-26T23:08:08.688Z,33.20
2019-04-26T23:10:37.402Z,33.20
2019-04-26T23:13:07.876Z,33.10
2019-04-26T23:15:53.603Z,33.10
2019-04-26T23:18:43.793Z,33.00
2019-04-26T23:21:14.933Z,33.00
2019-04-26T23:23:53.446Z,33.00
2019-04-26T23:26:20.615Z,32.90
2019-04-26T23:28:47.377Z,32.90
2019-04-26T23:31:14.392Z,32.90
2019-04-26T23:33:42.939Z,32.80
2019-04-26T23:36:18.459Z,32.80
2019-04-26T23:38:46.595Z,32.80
2019-04-26T23:41:14.155Z,32.80
2019-04-26T23:43:41.560Z,32.70
2019-04-26T23:46:09.026Z,32.70
2019-04-26T23:48:35.875Z,32.70
2019-04-26T23:51:09.103Z,32.70
2019-04-26T23:53:36.177Z,32.70
2019-04-26T23:56:03.608Z,32.70
2019-04-26T23:58:30.681Z,32.60
